createdAt,value
2019-05-06T00:00:55.405Z,71.53
2019-05-06T00:03:14.921Z,71.15
2019-05-06T00:05:44.198Z,70.71
2019-05-06T00:08:14.478Z,70.71
2019-05-06T00:10:44.753Z,70.88
2019-05-06T00:13:14.160Z,71.21
2019-05-06T00:15:43.681Z,71.59
2019-05-06T00:18:13.844Z,72.02
2019-05-06T00:20:43.844Z,72.11
2019-05-06T00:23:18.835Z,72.38
2019-05-06T00:25:59.678Z,72.72
2019-05-06T00:28:38.046Z,72.76
2019-05-06T00:31:13.151Z,73.20
2019-05-06T00:33:40.270Z,73.43
2019-05-06T00:36:09.549Z,72.96
2019-05-06T00:38:40.597Z,73.90
2019-05-06T00:41:14.439Z,73.54
2019-05-06T00:43:43.779Z,73.33
2019-05-06T00:46:13.883Z,73.68
2019-05-06T00:48:44.908Z,73.69
2019-05-06T00:51:14.385Z,74.19
2019-05-06T00:53:47.401Z,74.00
2019-05-06T00:56:16.686Z,74.00
2019-05-06T00:58:45.947Z,74.08
2019-05-06T01:01:26.357Z,74.29
2019-05-06T01:03:46.250Z,74.73
2019-05-06T01:06:15.541Z,75.04
2019-05-06T01:08:44.851Z,74.86
2019-05-06T01:11:14.469Z,74.95
2019-05-06T01:13:49.879Z,76.08
2019-05-06T01:16:20.400Z,76.18
2019-05-06T01:18:49.894Z,76.35
2019-05-06T01:21:19.171Z,76.31
2019-05-06T01:23:48.441Z,75.51
2019-05-06T01:26:17.956Z,75.59
2019-05-06T01:28:47.266Z,75.61
2019-05-06T01:31:16.761Z,75.52
2019-05-06T01:33:46.043Z,75.13
2019-05-06T01:36:15.405Z,74.96
2019-05-06T01:39:16.772Z,74.77
2019-05-06T01:42:21.750Z,75.10
2019-05-06T01:44:51.049Z,74.49
2019-05-06T01:47:20.334Z,74.43
2019-05-06T01:49:49.626Z,74.66
2019-05-06T01:52:18.930Z,75.08
2019-05-06T01:54:48.229Z,74.68
2019-05-06T01:57:17.491Z,75.06
2019-05-06T01:59:46.777Z,75.09
2019-05-06T02:02:16.030Z,75.48
2019-05-06T02:04:45.304Z,75.80
2019-05-06T02:07:14.645Z,75.98
2019-05-06T02:09:44.721Z,75.69
2019-05-06T02:12:14.304Z,76.09
2019-05-06T02:14:43.782Z,76.16
2019-05-06T02:17:14.440Z,76.24
2019-05-06T02:19:43.973Z,76.36
2019-05-06T02:22:50.986Z,76.23
2019-05-06T02:25:26.781Z,76.45
2019-05-06T02:27:56.071Z,76.42
2019-05-06T02:30:50.199Z,76.49
2019-05-06T02:33:35.711Z,76.55
2019-05-06T02:36:15.019Z,76.91
2019-05-06T02:38:47.971Z,76.85
2019-05-06T02:41:15.469Z,77.34
2019-05-06T02:43:45.211Z,78.12
2019-05-06T02:46:14.528Z,77.98
2019-05-06T02:49:07.403Z,77.57
2019-05-06T02:51:36.661Z,77.37
2019-05-06T02:54:07.057Z,76.99
2019-05-06T02:56:36.326Z,76.87
2019-05-06T02:59:05.700Z,76.45
2019-05-06T03:01:34.959Z,76.63
2019-05-06T03:04:13.097Z,77.00
2019-05-06T03:06:44.732Z,77.22
2019-05-06T03:09:13.722Z,77.03
2019-05-06T03:11:43.881Z,76.86
2019-05-06T03:14:14.096Z,77.00
2019-05-06T03:16:44.088Z,76.94
2019-05-06T03:19:13.752Z,76.37
2019-05-06T03:22:03.405Z,76.65
2019-05-06T03:24:43.651Z,77.11
2019-05-06T03:27:14.694Z,76.50
2019-05-06T03:29:44.673Z,76.46
2019-05-06T03:32:21.407Z,76.50
2019-05-06T03:35:01.245Z,76.61
2019-05-06T03:37:17.430Z,77.14
2019-05-06T03:39:46.931Z,77.00
2019-05-06T03:42:16.952Z,76.64
2019-05-06T03:45:04.179Z,76.67
2019-05-06T03:47:56.207Z,77.58
2019-05-06T03:50:25.495Z,77.52
2019-05-06T03:52:56.488Z,77.19
2019-05-06T03:55:27.163Z,77.36
2019-05-06T03:57:57.521Z,77.66
2019-05-06T04:00:26.788Z,77.60
2019-05-06T04:02:56.101Z,76.77
2019-05-06T04:05:25.368Z,76.32
2019-05-06T04:07:54.946Z,75.75
2019-05-06T04:10:24.206Z,75.97
2019-05-06T04:12:54.590Z,75.85
2019-05-06T04:15:26.876Z,76.12
2019-05-06T04:17:59.254Z,76.14
2019-05-06T04:20:46.138Z,76.14
2019-05-06T04:23:43.476Z,76.32
2019-05-06T04:26:32.946Z,76.43
2019-05-06T04:29:03.872Z,74.93
2019-05-06T04:31:33.961Z,75.20
2019-05-06T04:34:12.765Z,73.93
2019-05-06T04:36:34.779Z,72.96
2019-05-06T04:39:05.613Z,73.16
2019-05-06T04:41:35.324Z,72.47
2019-05-06T04:44:04.781Z,72.33
2019-05-06T04:46:35.077Z,72.51
2019-05-06T04:49:04.646Z,71.57
2019-05-06T04:51:36.969Z,71.77
2019-05-06T04:54:05.969Z,71.37
2019-05-06T04:56:35.753Z,71.57
2019-05-06T04:59:06.226Z,71.53
2019-05-06T05:01:37.010Z,70.94
2019-05-06T05:04:22.828Z,70.05
2019-05-06T05:07:04.785Z,70.01
2019-05-06T05:09:35.570Z,70.17
2019-05-06T05:12:13.358Z,69.56
2019-05-06T05:14:56.008Z,69.25
2019-05-06T05:17:52.489Z,69.04
2019-05-06T05:20:36.451Z,68.18
2019-05-06T05:22:52.893Z,67.38
2019-05-06T05:25:23.056Z,66.55
2019-05-06T05:27:52.870Z,66.92
2019-05-06T05:30:22.301Z,66.82
2019-05-06T05:32:52.077Z,66.73
2019-05-06T05:35:22.703Z,66.53
2019-05-06T05:37:52.940Z,66.81
2019-05-06T05:40:22.565Z,65.73
2019-05-06T05:43:29.317Z,65.55
2019-05-06T05:45:58.658Z,65.67
2019-05-06T05:48:51.983Z,66.07
2019-05-06T05:51:22.242Z,66.17
2019-05-06T05:53:52.440Z,66.07
2019-05-06T05:56:24.001Z,66.24
2019-05-06T05:58:53.503Z,66.22
2019-05-06T06:01:25.001Z,65.17
2019-05-06T06:03:54.348Z,64.92
2019-05-06T06:06:26.802Z,64.89
2019-05-06T06:08:57.355Z,64.67
2019-05-06T06:11:32.795Z,64.07
2019-05-06T06:14:07.016Z,63.69
2019-05-06T06:17:02.661Z,63.48
2019-05-06T06:19:45.014Z,63.70
2019-05-06T06:22:17.734Z,62.80
2019-05-06T06:24:47.718Z,61.64
2019-05-06T06:27:17.543Z,61.61
2019-05-06T06:29:48.156Z,60.19
2019-05-06T06:32:23.312Z,59.77
2019-05-06T06:35:11.046Z,59.40
2019-05-06T06:37:57.304Z,59.26
2019-05-06T06:40:28.917Z,57.59
2019-05-06T06:43:02.690Z,56.28
2019-05-06T06:45:32.672Z,56.88
2019-05-06T06:48:03.156Z,55.40
2019-05-06T06:50:33.023Z,55.42
2019-05-06T06:53:03.150Z,54.84
2019-05-06T06:55:32.528Z,54.54
2019-05-06T06:58:19.491Z,53.00
2019-05-06T07:01:07.059Z,52.65
2019-05-06T07:03:52.824Z,46.64
2019-05-06T07:06:35.365Z,46.97
2019-05-06T07:09:06.320Z,45.71
2019-05-06T07:11:35.667Z,42.21
2019-05-06T07:14:04.967Z,43.33
2019-05-06T07:16:34.239Z,45.09
2019-05-06T07:19:06.763Z,45.92
2019-05-06T07:21:57.360Z,47.11
2019-05-06T07:24:26.688Z,44.76
2019-05-06T07:27:08.173Z,46.07
2019-05-06T07:29:37.486Z,45.90
2019-05-06T07:32:06.798Z,45.64
2019-05-06T07:34:36.071Z,47.44
2019-05-06T07:37:05.399Z,47.44
2019-05-06T07:39:34.686Z,47.32
2019-05-06T07:42:07.901Z,46.80
2019-05-06T07:44:54.380Z,46.64
2019-05-06T07:47:42.793Z,47.07
2019-05-06T07:50:23.943Z,46.92
2019-05-06T07:53:07.830Z,50.23
2019-05-06T07:55:38.259Z,49.22
2019-05-06T07:58:08.136Z,49.37
2019-05-06T08:00:37.738Z,49.36
2019-05-06T08:03:07.239Z,52.30
2019-05-06T08:05:36.533Z,52.15
2019-05-06T08:08:06.087Z,52.71
2019-05-06T08:10:35.567Z,52.68
2019-05-06T08:13:04.930Z,53.58
2019-05-06T08:15:34.530Z,52.31
2019-05-06T08:18:03.812Z,51.38
2019-05-06T08:20:39.547Z,53.16
2019-05-06T08:23:22.057Z,52.56
2019-05-06T08:25:54.308Z,52.82
2019-05-06T08:28:37.578Z,52.74
2019-05-06T08:30:59.902Z,52.30
2019-05-06T08:33:29.320Z,52.38
2019-05-06T08:36:08.810Z,54.81
2019-05-06T08:38:50.388Z,53.49
2019-05-06T08:41:19.690Z,52.52
2019-05-06T08:43:48.985Z,52.20
2019-05-06T08:46:18.264Z,52.74
2019-05-06T08:48:47.581Z,54.33
2019-05-06T08:51:24.356Z,54.72
2019-05-06T08:54:03.202Z,55.83
2019-05-06T08:56:32.632Z,55.95
2019-05-06T08:59:03.178Z,56.08
2019-05-06T09:01:42.458Z,55.42
2019-05-06T09:04:12.637Z,56.26
2019-05-06T09:06:43.333Z,56.35
2019-05-06T09:09:13.174Z,56.03
2019-05-06T09:12:03.879Z,55.65
2019-05-06T09:14:33.309Z,55.39
2019-05-06T09:17:03.029Z,54.18
2019-05-06T09:19:33.230Z,53.69
2019-05-06T09:22:02.728Z,54.42
2019-05-06T09:24:33.775Z,54.55
2019-05-06T09:27:22.597Z,53.40
2019-05-06T09:29:54.711Z,53.47
2019-05-06T09:32:27.937Z,53.58
2019-05-06T09:34:58.911Z,51.92
2019-05-06T09:37:28.207Z,52.08
2019-05-06T09:39:57.496Z,50.65
2019-05-06T09:42:26.786Z,49.55
2019-05-06T09:44:56.047Z,48.18
2019-05-06T09:47:42.228Z,50.53
2019-05-06T09:50:13.711Z,49.85
2019-05-06T09:52:42.988Z,49.79
2019-05-06T09:55:26.708Z,47.75
2019-05-06T09:57:57.947Z,47.80
2019-05-06T10:00:28.308Z,47.26
2019-05-06T10:02:57.592Z,47.52
2019-05-06T10:05:26.996Z,47.14
2019-05-06T10:07:57.729Z,46.48
2019-05-06T10:10:27.214Z,46.36
2019-05-06T10:12:56.593Z,46.33
2019-05-06T10:15:25.891Z,45.97
2019-05-06T10:18:13.189Z,44.73
2019-05-06T10:20:44.450Z,43.60
2019-05-06T10:23:14.560Z,44.01
2019-05-06T10:25:44.517Z,43.48
2019-05-06T10:28:33.888Z,43.38
2019-05-06T10:31:04.722Z,40.42
2019-05-06T10:33:35.305Z,38.74
2019-05-06T10:36:04.904Z,37.48
2019-05-06T10:38:50.342Z,35.56
2019-05-06T10:41:22.563Z,35.54
2019-05-06T10:44:23.166Z,34.91
2019-05-06T10:46:52.827Z,32.31
2019-05-06T10:49:22.544Z,32.70
2019-05-06T10:52:12.743Z,32.73
2019-05-06T10:54:42.207Z,32.97
2019-05-06T10:57:24.438Z,32.50
2019-05-06T10:59:53.756Z,30.99
2019-05-06T11:02:48.247Z,31.73
2019-05-06T11:05:18.954Z,31.15
2019-05-06T11:07:48.308Z,31.96
2019-05-06T11:10:26.830Z,34.08
2019-05-06T11:12:52.333Z,34.28
2019-05-06T11:15:23.242Z,32.79
2019-05-06T11:17:52.747Z,34.24
2019-05-06T11:20:24.197Z,33.60
2019-05-06T11:22:53.713Z,32.16
2019-05-06T11:25:23.166Z,32.92
2019-05-06T11:27:52.878Z,32.63
2019-05-06T11:30:42.524Z,31.47
2019-05-06T11:33:30.132Z,31.15
2019-05-06T11:36:02.367Z,34.20
2019-05-06T11:38:32.262Z,33.22
2019-05-06T11:41:01.766Z,35.34
2019-05-06T11:43:32.449Z,35.45
2019-05-06T11:46:01.991Z,37.41
2019-05-06T11:48:32.810Z,36.45
2019-05-06T11:51:03.975Z,37.79
2019-05-06T11:53:33.260Z,39.10
2019-05-06T11:56:10.013Z,39.32
2019-05-06T11:58:49.867Z,39.96
2019-05-06T12:01:32.860Z,40.62
2019-05-06T12:04:02.808Z,41.24
2019-05-06T12:06:33.049Z,42.45
2019-05-06T12:09:06.449Z,43.81
2019-05-06T12:11:33.774Z,45.10
2019-05-06T12:14:03.090Z,46.84
2019-05-06T12:16:33.128Z,46.49
2019-05-06T12:19:02.989Z,46.56
2019-05-06T12:21:32.941Z,47.22
2019-05-06T12:24:03.616Z,46.26
2019-05-06T12:26:32.876Z,43.68
2019-05-06T12:29:02.451Z,44.45
2019-05-06T12:31:32.773Z,44.35
2019-05-06T12:34:02.848Z,45.11
2019-05-06T12:36:32.700Z,43.57
2019-05-06T12:39:20.141Z,43.34
2019-05-06T12:42:15.030Z,42.48
2019-05-06T12:44:59.210Z,40.31
2019-05-06T12:47:48.586Z,38.91
2019-05-06T12:50:18.105Z,38.62
2019-05-06T12:52:47.391Z,38.42
2019-05-06T12:55:21.672Z,38.40
2019-05-06T12:57:48.871Z,37.59
2019-05-06T13:00:18.265Z,38.62
2019-05-06T13:02:48.788Z,39.97
2019-05-06T13:05:18.286Z,40.69
2019-05-06T13:07:48.122Z,40.76
2019-05-06T13:10:23.076Z,41.50
2019-05-06T13:13:03.923Z,41.51
2019-05-06T13:15:33.208Z,41.97
2019-05-06T13:18:07.380Z,43.37
2019-05-06T13:20:38.024Z,42.90
2019-05-06T13:23:35.098Z,43.93
2019-05-06T13:26:04.582Z,44.04
2019-05-06T13:28:37.752Z,43.64
2019-05-06T13:31:17.155Z,42.01
2019-05-06T13:33:54.063Z,42.49
2019-05-06T13:36:23.087Z,41.74
2019-05-06T13:39:09.180Z,40.52
2019-05-06T13:41:23.398Z,40.40
2019-05-06T13:44:17.562Z,39.90
2019-05-06T13:46:53.342Z,39.80
2019-05-06T13:49:47.656Z,40.21
2019-05-06T13:52:22.772Z,40.70
2019-05-06T13:54:53.179Z,41.52
2019-05-06T13:57:22.408Z,40.19
2019-05-06T13:59:53.215Z,39.49
2019-05-06T14:02:35.587Z,37.87
2019-05-06T14:05:06.574Z,39.10
2019-05-06T14:07:37.093Z,38.91
2019-05-06T14:10:07.057Z,39.25
2019-05-06T14:12:36.350Z,39.33
2019-05-06T14:15:07.399Z,40.31
2019-05-06T14:17:36.827Z,40.54
2019-05-06T14:20:06.847Z,39.10
2019-05-06T14:22:36.263Z,39.42
2019-05-06T14:25:33.348Z,39.32
2019-05-06T14:28:13.294Z,39.51
2019-05-06T14:30:54.678Z,39.77
2019-05-06T14:33:23.977Z,40.21
2019-05-06T14:35:53.275Z,40.33
2019-05-06T14:38:24.521Z,41.82
2019-05-06T14:41:27.018Z,42.11
2019-05-06T14:43:52.653Z,43.13
2019-05-06T14:46:22.898Z,42.90
2019-05-06T14:48:53.410Z,42.98
2019-05-06T14:51:22.917Z,39.42
2019-05-06T14:53:53.076Z,39.36
2019-05-06T14:56:32.232Z,39.14
2019-05-06T14:59:05.668Z,39.30
2019-05-06T15:01:36.887Z,40.17
2019-05-06T15:04:06.461Z,39.59
2019-05-06T15:06:35.805Z,38.71
2019-05-06T15:09:07.710Z,38.65
2019-05-06T15:11:37.010Z,38.42
2019-05-06T15:14:06.500Z,38.36
2019-05-06T15:16:35.776Z,38.74
2019-05-06T15:19:05.320Z,39.36
2019-05-06T15:21:38.319Z,40.02
2019-05-06T15:24:06.732Z,39.35
2019-05-06T15:26:35.987Z,40.35
2019-05-06T15:29:05.377Z,39.66
2019-05-06T15:31:45.778Z,40.29
2019-05-06T15:34:22.480Z,40.08
2019-05-06T15:37:08.152Z,40.84
2019-05-06T15:39:37.468Z,40.74
2019-05-06T15:42:06.733Z,41.50
2019-05-06T15:44:36.031Z,41.76
2019-05-06T15:47:06.515Z,42.13
2019-05-06T15:49:37.630Z,42.39
2019-05-06T15:52:07.008Z,42.17
2019-05-06T15:54:36.279Z,41.81
2019-05-06T15:57:05.619Z,41.58
2019-05-06T15:59:41.111Z,42.27
2019-05-06T16:02:11.956Z,41.53
2019-05-06T16:04:43.325Z,41.05
2019-05-06T16:07:15.503Z,40.87
2019-05-06T16:09:46.976Z,40.90
2019-05-06T16:12:19.383Z,41.12
2019-05-06T16:14:53.118Z,41.36
2019-05-06T16:17:24.142Z,40.95
2019-05-06T16:19:56.328Z,40.78
2019-05-06T16:22:27.792Z,40.61
2019-05-06T16:25:04.711Z,40.87
2019-05-06T16:27:36.496Z,40.76
2019-05-06T16:30:10.127Z,41.09
2019-05-06T16:32:41.968Z,41.12
2019-05-06T16:35:11.940Z,41.85
2019-05-06T16:37:42.530Z,41.08
2019-05-06T16:40:12.432Z,40.93
2019-05-06T16:42:45.920Z,40.50
2019-05-06T16:45:14.062Z,40.09
2019-05-06T16:47:44.829Z,39.86
2019-05-06T16:50:17.010Z,40.12
2019-05-06T16:52:47.415Z,39.62
2019-05-06T16:55:24.199Z,39.99
2019-05-06T16:58:02.595Z,39.94
2019-05-06T17:00:33.651Z,40.16
2019-05-06T17:03:11.702Z,40.40
2019-05-06T17:06:07.124Z,40.83
2019-05-06T17:08:36.950Z,40.82
2019-05-06T17:11:08.281Z,40.64
2019-05-06T17:13:39.633Z,40.84
2019-05-06T17:16:13.690Z,40.89
2019-05-06T17:18:44.526Z,40.84
2019-05-06T17:21:16.251Z,40.66
2019-05-06T17:23:47.504Z,40.47
2019-05-06T17:26:19.259Z,40.60
2019-05-06T17:29:22.671Z,41.04
2019-05-06T17:32:19.294Z,41.34
2019-05-06T17:34:52.879Z,41.61
2019-05-06T17:37:42.230Z,42.11
2019-05-06T17:40:15.842Z,41.29
2019-05-06T17:42:45.955Z,41.01
2019-05-06T17:45:36.478Z,41.29
2019-05-06T17:48:18.048Z,42.08
2019-05-06T17:51:08.466Z,41.88
2019-05-06T17:53:42.612Z,42.53
2019-05-06T17:56:14.178Z,41.74
2019-05-06T17:58:45.140Z,41.09
2019-05-06T18:01:16.091Z,40.99
2019-05-06T18:03:46.144Z,40.81
2019-05-06T18:06:15.464Z,40.57
2019-05-06T18:08:46.501Z,39.94
2019-05-06T18:11:15.793Z,40.03
2019-05-06T18:13:45.071Z,40.10
2019-05-06T18:16:15.633Z,40.06
2019-05-06T18:18:44.986Z,40.08
2019-05-06T18:21:14.282Z,40.00
2019-05-06T18:23:43.598Z,40.54
2019-05-06T18:26:12.919Z,40.81
2019-05-06T18:28:44.042Z,41.01
2019-05-06T18:31:14.554Z,41.33
2019-05-06T18:33:43.860Z,41.29
2019-05-06T18:36:13.208Z,41.66
2019-05-06T18:38:42.556Z,41.96
2019-05-06T18:41:12.081Z,42.25
2019-05-06T18:43:43.254Z,42.85
2019-05-06T18:46:13.432Z,42.66
2019-05-06T18:48:42.870Z,42.42
2019-05-06T18:51:13.986Z,43.34
2019-05-06T18:53:43.296Z,43.59
2019-05-06T18:56:12.779Z,43.83
2019-05-06T18:58:42.881Z,43.59
2019-05-06T19:01:13.281Z,43.43
2019-05-06T19:03:55.441Z,44.19
2019-05-06T19:06:24.718Z,44.19
2019-05-06T19:09:03.262Z,45.11
2019-05-06T19:11:32.811Z,45.45
2019-05-06T19:14:02.245Z,45.62
2019-05-06T19:16:48.328Z,45.10
2019-05-06T19:19:06.059Z,44.60
2019-05-06T19:21:35.578Z,44.83
2019-05-06T19:24:04.873Z,44.77
2019-05-06T19:26:34.191Z,45.41
2019-05-06T19:29:04.587Z,46.53
2019-05-06T19:31:34.360Z,46.56
2019-05-06T19:34:06.938Z,46.43
2019-05-06T19:36:37.509Z,46.77
2019-05-06T19:39:07.956Z,46.19
2019-05-06T19:41:37.241Z,46.19
2019-05-06T19:44:06.620Z,46.55
2019-05-06T19:46:35.915Z,46.88
2019-05-06T19:49:05.224Z,45.71
2019-05-06T19:51:35.196Z,46.35
2019-05-06T19:54:04.735Z,47.17
2019-05-06T19:56:35.126Z,46.95
2019-05-06T19:59:04.493Z,46.96
2019-05-06T20:01:33.806Z,47.27
2019-05-06T20:04:03.215Z,46.27
2019-05-06T20:06:52.361Z,46.92
2019-05-06T20:09:32.922Z,46.45
2019-05-06T20:12:22.998Z,46.31
2019-05-06T20:14:46.121Z,47.19
2019-05-06T20:17:15.484Z,47.21
2019-05-06T20:19:44.791Z,47.46
2019-05-06T20:22:14.075Z,48.84
2019-05-06T20:24:43.350Z,48.28
2019-05-06T20:27:13.261Z,47.91
2019-05-06T20:29:43.900Z,48.33
2019-05-06T20:32:14.710Z,49.54
2019-05-06T20:34:44.024Z,49.96
2019-05-06T20:37:13.629Z,49.25
2019-05-06T20:39:43.475Z,50.24
2019-05-06T20:42:13.019Z,49.96
2019-05-06T20:44:43.427Z,50.57
2019-05-06T20:47:13.210Z,50.73
2019-05-06T20:49:43.261Z,50.06
2019-05-06T20:52:12.551Z,51.03
2019-05-06T20:54:42.882Z,50.79
2019-05-06T20:57:12.442Z,51.02
2019-05-06T20:59:42.170Z,51.59
2019-05-06T21:02:12.473Z,52.55
2019-05-06T21:04:43.211Z,52.96
2019-05-06T21:07:13.641Z,53.69
2019-05-06T21:09:43.333Z,53.87
2019-05-06T21:12:13.705Z,53.46
2019-05-06T21:14:43.007Z,52.89
2019-05-06T21:17:12.566Z,53.14
2019-05-06T21:19:43.756Z,53.26
2019-05-06T21:22:13.393Z,53.75
2019-05-06T21:24:43.179Z,54.31
2019-05-06T21:27:14.034Z,55.00
2019-05-06T21:29:43.351Z,55.34
2019-05-06T21:32:12.612Z,55.54
2019-05-06T21:34:46.411Z,55.49
2019-05-06T21:37:15.707Z,55.31
2019-05-06T21:39:44.999Z,54.76
2019-05-06T21:42:14.600Z,54.64
2019-05-06T21:44:43.888Z,55.27
2019-05-06T21:47:14.258Z,55.12
2019-05-06T21:49:43.566Z,54.85
2019-05-06T21:52:13.251Z,54.94
2019-05-06T21:54:43.405Z,55.00
2019-05-06T21:57:12.986Z,54.60
2019-05-06T21:59:42.830Z,53.73
2019-05-06T22:02:14.436Z,54.95
2019-05-06T22:04:44.031Z,54.98
2019-05-06T22:07:14.532Z,55.17
2019-05-06T22:09:44.160Z,55.01
2019-05-06T22:12:13.788Z,55.00
2019-05-06T22:14:43.163Z,55.61
2019-05-06T22:17:14.111Z,55.73
2019-05-06T22:19:43.850Z,54.88
2019-05-06T22:22:14.630Z,55.53
2019-05-06T22:24:57.387Z,55.51
2019-05-06T22:27:22.160Z,55.66
2019-05-06T22:29:52.866Z,56.10
2019-05-06T22:32:23.157Z,56.12
2019-05-06T22:34:52.593Z,56.46
2019-05-06T22:37:22.180Z,57.03
2019-05-06T22:39:52.774Z,57.28
2019-05-06T22:42:24.958Z,57.71
2019-05-06T22:44:54.396Z,57.11
2019-05-06T22:47:23.659Z,57.83
2019-05-06T22:49:54.338Z,57.52
2019-05-06T22:52:23.798Z,57.17
2019-05-06T22:54:53.098Z,56.58
2019-05-06T22:57:23.552Z,57.81
2019-05-06T22:59:53.018Z,58.05
2019-05-06T23:02:43.794Z,58.60
2019-05-06T23:05:13.299Z,58.69
2019-05-06T23:07:42.581Z,60.03
2019-05-06T23:10:12.093Z,59.63
2019-05-06T23:12:43.342Z,60.37
2019-05-06T23:15:12.556Z,60.48
2019-05-06T23:17:43.282Z,60.31
2019-05-06T23:20:12.589Z,60.43
2019-05-06T23:22:42.346Z,61.26
2019-05-06T23:25:12.610Z,62.08
2019-05-06T23:27:44.059Z,61.97
2019-05-06T23:30:12.937Z,62.27
2019-05-06T23:32:42.455Z,62.87
2019-05-06T23:35:12.833Z,62.06
2019-05-06T23:38:18.319Z,61.44
2019-05-06T23:41:23.214Z,61.51
2019-05-06T23:44:41.526Z,62.14
2019-05-06T23:47:35.581Z,62.34
2019-05-06T23:50:42.826Z,62.56
2019-05-06T23:53:47.475Z,63.69
2019-05-06T23:56:43.359Z,64.70
2019-05-06T23:59:13.066Z,63.93
